Time,TemperatureF,DewpointF,PressureIn,WindDirection,WindDirectionDegrees,WindSpeedMPH,WindSpeedGustMPH,Humidity,HourlyPrecipIn,Conditions,Clouds,dailyrainin,SoftwareType,DateUTC
2013-06-28 00:02:00,77.0,69.0,29.71,WNW,284,1.0,5.0,77,0.00,,,0.00,,2013-06-28 04:02:00,
2013-06-28 00:12:00,77.0,70.0,29.72,NNW,329,2.0,4.0,78,0.00,,,0.00,,2013-06-28 04:12:00,
2013-06-28 00:22:00,76.0,69.0,29.72,WNW,301,2.0,8.0,78,0.00,,,0.00,,2013-06-28 04:22:00,
2013-06-28 00:33:00,76.0,68.0,29.72,WNW,292,1.0,8.0,77,0.00,,,0.00,,2013-06-28 04:33:00,
2013-06-28 00:43:00,76.0,68.0,29.72,NW,319,1.0,4.0,77,0.00,,,0.00,,2013-06-28 04:43:00,
2013-06-28 00:53:00,76.0,68.0,29.73,WNW,302,1.0,4.0,77,0.00,,,0.00,,2013-06-28 04:53:00,
2013-06-28 01:01:00,75.0,67.0,29.73,WSW,249,1.0,4.0,77,0.00,,,0.00,,2013-06-28 05:01:00,
2013-06-28 01:43:00,73.0,68.0,29.73,WSW,256,1.0,5.0,83,0.00,,,0.00,,2013-06-28 05:43:00,
2013-06-28 01:53:00,73.0,68.0,29.73,SW,225,2.0,5.0,83,0.00,,,0.00,,2013-06-28 05:53:00,
2013-06-28 02:02:00,73.0,67.0,29.73,West,276,1.0,4.0,82,0.00,,,0.00,,2013-06-28 06:02:00,
2013-06-28 02:12:00,73.0,67.0,29.73,WSW,240,1.0,6.0,81,0.00,,,0.00,,2013-06-28 06:12:00,
2013-06-28 02:22:00,73.0,67.0,29.73,NW,304,1.0,4.0,81,0.00,,,0.00,,2013-06-28 06:22:00,
2013-06-28 02:33:00,73.0,67.0,29.73,NW,304,1.0,4.0,81,0.00,,,0.00,,2013-06-28 06:33:00,
2013-06-28 02:42:00,73.0,66.0,29.72,WNW,295,3.0,7.0,80,0.00,,,0.00,,2013-06-28 06:42:00,
2013-06-28 03:01:00,72.0,65.0,29.72,WNW,300,1.0,3.0,80,0.00,,,0.00,,2013-06-28 07:01:00,
2013-06-28 03:11:00,72.0,65.0,29.72,WSW,246,1.0,5.0,80,0.00,,,0.00,,2013-06-28 07:11:00,
2013-06-28 03:22:00,72.0,65.0,29.71,West,268,0.0,4.0,79,0.00,,,0.00,,2013-06-28 07:22:00,
2013-06-28 03:33:00,72.0,65.0,29.71,West,278,1.0,5.0,79,0.00,,,0.00,,2013-06-28 07:33:00,
2013-06-28 03:43:00,71.0,64.0,29.71,SW,236,1.0,5.0,79,0.00,,,0.00,,2013-06-28 07:43:00,
2013-06-28 03:52:00,71.0,64.0,29.70,West,266,1.0,4.0,79,0.00,,,0.00,,2013-06-28 07:52:00,
2013-06-28 04:02:00,71.0,64.0,29.70,WNW,283,1.0,5.0,79,0.00,,,0.00,,2013-06-28 08:02:00,
2013-06-28 04:11:00,71.0,64.0,29.70,West,274,1.0,4.0,79,0.00,,,0.00,,2013-06-28 08:11:00,
2013-06-28 04:22:00,70.0,63.0,29.70,WNW,284,2.0,5.0,79,0.00,,,0.00,,2013-06-28 08:22:00,
2013-06-28 04:33:00,70.0,63.0,29.70,West,260,1.0,7.0,79,0.00,,,0.00,,2013-06-28 08:33:00,
2013-06-28 04:43:00,70.0,64.0,29.70,West,263,1.0,7.0,80,0.00,,,0.00,,2013-06-28 08:43:00,
2013-06-28 05:02:00,69.0,63.0,29.70,West,268,1.0,4.0,82,0.00,,,0.00,,2013-06-28 09:02:00,
2013-06-28 05:11:00,69.0,63.0,29.70,West,280,2.0,4.0,82,0.00,,,0.00,,2013-06-28 09:11:00,
2013-06-28 05:22:00,69.0,64.0,29.70,West,267,2.0,4.0,83,0.00,,,0.00,,2013-06-28 09:22:00,
2013-06-28 05:33:00,68.0,63.0,29.70,SW,235,1.0,2.0,84,0.00,,,0.00,,2013-06-28 09:33:00,
2013-06-28 05:42:00,68.0,63.0,29.70,WSW,242,1.0,2.0,85,0.00,,,0.00,,2013-06-28 09:42:00,
2013-06-28 05:52:00,68.0,63.0,29.70,West,264,0.0,3.0,85,0.00,,,0.00,,2013-06-28 09:52:00,
2013-06-28 06:52:00,67.0,63.0,29.70,WSW,257,1.0,3.0,87,0.00,,,0.00,,2013-06-28 10:52:00,
2013-06-28 07:43:00,68.0,63.0,29.71,WSW,257,0.0,2.0,85,0.00,,,0.00,,2013-06-28 11:43:00,
2013-06-28 07:53:00,69.0,64.0,29.70,SW,232,1.0,5.0,84,0.00,,,0.00,,2013-06-28 11:53:00,
2013-06-28 08:12:00,69.0,63.0,29.71,WNW,300,2.0,6.0,82,0.00,,,0.00,,2013-06-28 12:12:00,
2013-06-28 08:22:00,70.0,64.0,29.71,WSW,243,2.0,5.0,82,0.00,,,0.00,,2013-06-28 12:22:00,
2013-06-28 08:34:00,70.0,64.0,29.71,West,267,2.0,5.0,81,0.00,,,0.00,,2013-06-28 12:34:00,
2013-06-28 08:43:00,71.0,65.0,29.71,WNW,291,1.0,6.0,80,0.00,,,0.00,,2013-06-28 12:43:00,
2013-06-28 08:52:00,72.0,65.0,29.71,ENE,64,2.0,7.0,78,0.00,,,0.00,,2013-06-28 12:52:00,
2013-06-28 09:53:00,75.0,66.0,29.71,NNE,15,2.0,7.0,73,0.00,,,0.00,,2013-06-28 13:53:00,
2013-06-28 10:02:00,75.0,66.0,29.71,WNW,287,1.0,6.0,74,0.00,,,0.00,,2013-06-28 14:02:00,
2013-06-28 10:12:00,76.0,67.0,29.72,WNW,284,2.0,7.0,73,0.00,,,0.00,,2013-06-28 14:12:00,
2013-06-28 10:33:00,77.0,67.0,29.71,West,278,1.0,7.0,72,0.00,,,0.00,,2013-06-28 14:33:00,
2013-06-28 10:44:00,77.0,66.0,29.71,ENE,63,1.0,8.0,70,0.00,,,0.00,,2013-06-28 14:44:00,
2013-06-28 10:53:00,78.0,67.0,29.71,NNW,342,2.0,7.0,68,0.00,,,0.00,,2013-06-28 14:53:00,
2013-06-28 11:02:00,78.0,67.0,29.71,NE,48,2.0,10.0,70,0.00,,,0.00,,2013-06-28 15:02:00,
2013-06-28 11:11:00,79.0,67.0,29.70,SW,232,2.0,7.0,67,0.00,,,0.00,,2013-06-28 15:11:00,
2013-06-28 11:24:00,79.0,67.0,29.70,NW,304,2.0,7.0,66,0.00,,,0.00,,2013-06-28 15:24:00,
2013-06-28 11:34:00,79.0,67.0,29.70,NNE,16,2.0,8.0,66,0.00,,,0.00,,2013-06-28 15:34:00,
2013-06-28 11:43:00,80.0,66.0,29.70,WNW,294,2.0,6.0,63,0.00,,,0.00,,2013-06-28 15:43:00,
2013-06-28 11:52:00,80.0,66.0,29.70,NW,311,3.0,8.0,62,0.00,,,0.00,,2013-06-28 15:52:00,
2013-06-28 12:01:00,81.0,67.0,29.70,NE,37,2.0,9.0,62,0.00,,,0.00,,2013-06-28 16:01:00,
2013-06-28 12:11:00,81.0,67.0,29.70,WNW,289,3.0,10.0,62,0.00,,,0.00,,2013-06-28 16:11:00,
2013-06-28 12:24:00,81.0,67.0,29.69,WNW,291,3.0,8.0,62,0.00,,,0.00,,2013-06-28 16:24:00,
2013-06-28 12:33:00,82.0,68.0,29.69,NW,325,2.0,9.0,62,0.00,,,0.00,,2013-06-28 16:33:00,
2013-06-28 12:44:00,82.0,66.0,29.69,NE,34,4.0,10.0,58,0.00,,,0.00,,2013-06-28 16:44:00,
2013-06-28 12:53:00,82.0,64.0,29.69,ENE,66,3.0,11.0,55,0.00,,,0.00,,2013-06-28 16:53:00,
2013-06-28 13:44:00,83.0,64.0,29.67,North,349,4.0,9.0,53,0.00,,,0.00,,2013-06-28 17:44:00,
2013-06-28 13:52:00,83.0,64.0,29.67,NNE,20,3.0,12.0,53,0.00,,,0.00,,2013-06-28 17:52:00,
2013-06-28 14:02:00,83.0,66.0,29.67,NW,316,3.0,9.0,57,0.00,,,0.00,,2013-06-28 18:02:00,
2013-06-28 14:52:00,83.0,66.0,29.65,NE,40,3.0,12.0,57,0.00,,,0.00,,2013-06-28 18:52:00,
2013-06-28 15:01:00,84.0,64.0,29.65,NNE,26,5.0,10.0,52,0.00,,,0.00,,2013-06-28 19:01:00,
2013-06-28 15:11:00,85.0,65.0,29.64,WNW,302,4.0,11.0,51,0.00,,,0.00,,2013-06-28 19:11:00,
2013-06-28 15:22:00,84.0,63.0,29.64,NNW,338,4.0,10.0,49,0.00,,,0.00,,2013-06-28 19:22:00,
2013-06-28 15:33:00,84.0,63.0,29.64,WNW,297,3.0,12.0,50,0.00,,,0.00,,2013-06-28 19:33:00,
2013-06-28 15:43:00,84.0,64.0,29.64,NW,311,4.0,12.0,51,0.00,,,0.00,,2013-06-28 19:43:00,
2013-06-28 15:53:00,83.0,61.0,29.64,NW,304,3.0,11.0,48,0.00,,,0.00,,2013-06-28 19:53:00,
2013-06-28 16:11:00,83.0,64.0,29.64,WSW,246,4.0,10.0,52,0.00,,,0.00,,2013-06-28 20:11:00,
2013-06-28 16:22:00,83.0,63.0,29.63,NNW,336,4.0,13.0,51,0.00,,,0.00,,2013-06-28 20:22:00,
2013-06-28 16:33:00,84.0,63.0,29.63,North,1,4.0,17.0,49,0.00,,,0.00,,2013-06-28 20:33:00,
2013-06-28 16:43:00,84.0,62.0,29.63,NW,311,5.0,13.0,48,0.00,,,0.00,,2013-06-28 20:43:00,
2013-06-28 16:52:00,83.0,61.0,29.63,NE,50,5.0,12.0,48,0.00,,,0.00,,2013-06-28 20:52:00,
2013-06-28 17:11:00,83.0,60.0,29.62,North,353,6.0,13.0,46,0.00,,,0.00,,2013-06-28 21:11:00,
2013-06-28 17:23:00,83.0,61.0,29.62,North,360,4.0,16.0,48,0.00,,,0.00,,2013-06-28 21:23:00,
2013-06-28 17:34:00,83.0,60.0,29.62,NW,316,5.0,12.0,46,0.00,,,0.00,,2013-06-28 21:34:00,
2013-06-28 17:43:00,84.0,63.0,29.62,East,82,3.0,9.0,49,0.00,,,0.00,,2013-06-28 21:43:00,
2013-06-28 17:53:00,84.0,61.0,29.62,WNW,284,3.0,11.0,46,0.00,,,0.00,,2013-06-28 21:53:00,
2013-06-28 18:11:00,84.0,59.0,29.63,North,351,4.0,10.0,43,0.00,,,0.00,,2013-06-28 22:11:00,
2013-06-28 18:22:00,84.0,60.0,29.62,NW,313,2.0,10.0,45,0.00,,,0.00,,2013-06-28 22:22:00,
2013-06-28 18:34:00,83.0,60.0,29.62,North,349,3.0,12.0,46,0.00,,,0.00,,2013-06-28 22:34:00,
2013-06-28 18:43:00,84.0,62.0,29.62,NNE,23,3.0,7.0,47,0.00,,,0.00,,2013-06-28 22:43:00,
2013-06-28 18:52:00,83.0,61.0,29.62,North,353,3.0,6.0,48,0.00,,,0.00,,2013-06-28 22:52:00,
2013-06-28 19:02:00,83.0,60.0,29.62,North,352,3.0,14.0,46,0.00,,,0.00,,2013-06-28 23:02:00,
2013-06-28 19:11:00,83.0,60.0,29.62,NW,323,3.0,12.0,46,0.00,,,0.00,,2013-06-28 23:11:00,
2013-06-28 19:23:00,82.0,60.0,29.62,NW,321,3.0,9.0,48,0.00,,,0.00,,2013-06-28 23:23:00,
2013-06-28 19:34:00,81.0,61.0,29.62,NNW,328,1.0,6.0,50,0.00,,,0.00,,2013-06-28 23:34:00,
2013-06-28 19:43:00,77.0,64.0,29.66,NNW,338,10.0,24.0,64,0.01,,,0.01,,2013-06-28 23:43:00,
2013-06-28 21:00:00,66.0,65.0,29.65,North,352,0.0,1.0,95,0.23,,,0.25,,2013-06-29 01:00:00,
2013-06-28 21:01:00,66.0,64.0,29.66,NW,318,0.0,2.0,94,0.25,,,0.25,,2013-06-29 01:01:00,
2013-06-28 21:11:00,66.0,64.0,29.66,NW,318,0.0,2.0,94,0.25,,,0.25,,2013-06-29 01:11:00,
2013-06-28 21:22:00,66.0,65.0,29.65,North,352,0.0,1.0,95,0.23,,,0.25,,2013-06-29 01:22:00,
2013-06-28 21:32:00,66.0,65.0,29.65,North,352,0.0,1.0,95,0.23,,,0.25,,2013-06-29 01:32:00,
2013-06-28 21:42:00,66.0,65.0,29.65,North,352,0.0,1.0,95,0.23,,,0.25,,2013-06-29 01:42:00,
2013-06-28 21:52:00,66.0,65.0,29.65,North,352,0.0,1.0,95,0.23,,,0.25,,2013-06-29 01:52:00,
2013-06-28 23:32:00,66.0,65.0,29.64,WSW,238,0.0,1.0,95,0.00,,,0.26,,2013-06-29 03:32:00,
2013-06-28 23:41:00,66.0,65.0,29.64,WSW,238,0.0,1.0,95,0.00,,,0.26,,2013-06-29 03:41:00,
2013-06-28 23:51:00,65.0,64.0,29.64,WSW,245,0.0,3.0,95,0.00,,,0.26,,2013-06-29 03:51:00,